Time;durP1;ratioP1;P1;durP2;ratioP2;P2;SDS_P1;SDS_P2;PMS_P1;PMS_P2;Temp;Humidity;BMP_temperature;BMP_pressure;BME280_temperature;BME280_humidity;BME280_pressure;Samples;Min_cycle;Max_cycle;Signal;HPM_P1;HPM_P2
2021/05/20 00:01:23;;;;;;;;;;;;;;;20.35;38.90;100231.28;4404010;32;20072;-50
2021/05/20 00:03:49;;;;;;;;;;;;;;;20.38;38.83;100233.09;4403458;32;19939;-52
2021/05/20 00:06:15;;;;;;;;;;;;;;;20.36;39.04;100233.94;4413810;32;20358;-53
2021/05/20 00:08:41;;;;;;;;;;;;;;;20.36;38.97;100238.34;4416997;32;19961;-54
2021/05/20 00:11:07;;;;;;;;;;;;;;;20.35;38.89;100231.28;4407516;32;19947;-51
2021/05/20 00:13:33;;;;;;;;;;;;;;;20.39;38.52;100233.06;4401771;32;19958;-50
2021/05/20 00:15:58;;;;;;;;;;;;;;;20.36;38.87;100235.69;4410710;32;19991;-53
2021/05/20 00:18:24;;;;;;;;;;;;;;;20.36;38.90;100227.75;4415831;32;19953;-53
2021/05/20 00:20:50;;;;;;;;;;;;;;;20.35;38.66;100233.94;4409239;32;19950;-51
2021/05/20 00:23:16;;;;;;;;;;;;;;;20.37;38.86;100234.81;4401812;32;20821;-50
2021/05/20 00:25:42;;;;;;;;;;;;;;;20.34;39.19;100237.44;4408607;32;20012;-51
2021/05/20 00:28:08;;;;;;;;;;;;;;;20.30;39.57;100233.87;4417262;32;19958;-52
2021/05/20 00:30:34;;;;;;;;;;;;;;;20.27;39.73;100239.16;4412324;32;20362;-52
2021/05/20 00:33:00;;;;;;;;;;;;;;;20.30;39.10;100239.16;4400891;32;20029;-52
2021/05/20 00:35:25;;;;;;;;;;;;;;;20.32;39.39;100241.84;4403377;32;19991;-51
2021/05/20 00:37:51;;;;;;;;;;;;;;;20.29;39.51;100241.78;4416889;32;19990;-51
2021/05/20 00:40:17;;;;;;;;;;;;;;;20.35;38.50;100241.88;4415508;32;20335;-50
2021/05/20 00:42:43;;;;;;;;;;;;;;;20.39;38.68;100243.66;4416278;32;19954;-53
2021/05/20 00:45:09;;;;;;;;;;;;;;;20.35;39.21;100240.09;4415722;32;19961;-52
2021/05/20 00:47:35;;;;;;;;;;;;;;;20.31;38.55;100240.03;4401236;32;20291;-49
2021/05/20 00:50:01;;;;;;;;;;;;;;;20.27;39.17;100239.16;4400868;32;19978;-54
2021/05/20 00:52:27;;;;;;;;;;;;;;;20.26;39.36;100241.75;4415672;32;20354;-52
2021/05/20 00:54:52;;;;;;;;;;;;;;;20.31;39.17;100242.69;4416204;32;20353;-51
2021/05/20 00:57:18;;;;;;;;;;;;;;;20.38;38.81;100241.88;4404373;32;19953;-52
2021/05/20 00:59:44;;;;;;;;;;;;;;;20.36;38.43;100248.91;4402186;32;19954;-53
2021/05/20 01:02:10;;;;;;;;;;;;;;;20.34;38.96;100240.97;4412888;32;19973;-52
2021/05/20 01:04:36;;;;;;;;;;;;;;;20.38;38.47;100241.88;4415747;32;20521;-52
2021/05/20 01:07:02;;;;;;;;;;;;;;;20.31;38.81;100240.94;4406306;32;20038;-52
2021/05/20 01:09:28;;;;;;;;;;;;;;;20.29;39.39;100241.78;4399605;32;20318;-51
2021/05/20 01:11:54;;;;;;;;;;;;;;;20.36;38.33;100246.28;4410797;32;19996;-52
2021/05/20 01:14:20;;;;;;;;;;;;;;;20.29;39.06;100241.78;4415195;32;19947;-46
2021/05/20 01:16:46;;;;;;;;;;;;;;;20.26;39.42;100249.69;4410359;32;20036;-51
2021/05/20 01:19:12;;;;;;;;;;;;;;;20.33;38.68;100248.91;4416043;32;20013;-53
2021/05/20 01:21:40;;;;;;;;;;;;;;;20.29;38.75;100244.44;4415927;32;20302;-52
2021/05/20 01:24:06;;;;;;;;;;;;;;;20.21;39.09;100250.53;4415955;32;20010;-50
2021/05/20 01:26:32;;;;;;;;;;;;;;;20.20;39.66;100247.88;4412343;32;19954;-54
2021/05/20 01:28:58;;;;;;;;;;;;;;;20.24;39.22;100254.09;4399780;32;19954;-52
2021/05/20 01:31:23;;;;;;;;;;;;;;;20.29;39.23;100247.97;4404740;32;19966;-51
2021/05/20 01:33:49;;;;;;;;;;;;;;;20.26;38.90;100257.63;4415909;32;19949;-49
2021/05/20 01:36:15;;;;;;;;;;;;;;;20.21;38.84;100255.81;4414054;32;19988;-51
2021/05/20 01:38:41;;;;;;;;;;;;;;;20.25;38.78;100261.16;4399779;32;20347;-54
2021/05/20 01:41:07;;;;;;;;;;;;;;;20.28;38.90;100259.44;4402989;32;19984;-53
2021/05/20 01:43:33;;;;;;;;;;;;;;;20.27;39.20;100259.41;4416259;32;19981;-52
2021/05/20 01:46:02;;;;;;;;;;;;;;;20.27;38.68;100257.66;4416302;32;19965;-54
2021/05/20 01:48:28;;;;;;;;;;;;;;;20.21;38.88;100258.47;4400075;32;19954;-55
2021/05/20 01:50:54;;;;;;;;;;;;;;;20.26;39.03;100257.63;4415194;32;19973;-52
2021/05/20 01:53:20;;;;;;;;;;;;;;;20.29;38.74;100262.94;4415979;32;19950;-52
2021/05/20 01:55:45;;;;;;;;;;;;;;;20.32;38.67;100257.72;4416428;32;19946;-52
2021/05/20 01:58:11;;;;;;;;;;;;;;;20.28;39.05;100261.16;4402317;32;20332;-51
2021/05/20 02:00:37;;;;;;;;;;;;;;;20.31;38.62;100261.19;4401601;32;19974;-54
2021/05/20 02:03:03;;;;;;;;;;;;;;;20.28;39.15;100262.06;4410585;32;19954;-50
2021/05/20 02:05:29;;;;;;;;;;;;;;;20.26;38.83;100262.91;4416179;32;20603;-54
2021/05/20 02:07:55;;;;;;;;;;;;;;;20.26;38.87;100268.19;4406998;32;19955;-51
2021/05/20 02:10:21;;;;;;;;;;;;;;;20.28;38.77;100263.81;4399165;32;19954;-55
2021/05/20 02:12:47;;;;;;;;;;;;;;;20.30;38.50;100262.97;4409128;32;19965;-53
2021/05/20 02:15:12;;;;;;;;;;;;;;;20.32;38.54;100273.56;4415018;32;19985;-53
2021/05/20 02:17:38;;;;;;;;;;;;;;;20.29;38.65;100276.16;4408720;32;20362;-52
2021/05/20 02:20:04;;;;;;;;;;;;;;;20.28;38.87;100272.66;4405821;32;19978;-54
2021/05/20 02:22:30;;;;;;;;;;;;;;;20.36;38.78;100280.66;4414134;32;20334;-53
2021/05/20 02:24:56;;;;;;;;;;;;;;;20.25;38.82;100277.91;4416067;32;19977;-54
2021/05/20 02:27:22;;;;;;;;;;;;;;;20.19;39.22;100283.09;4411555;32;19993;-52
2021/05/20 02:29:48;;;;;;;;;;;;;;;20.26;39.13;100284.06;4400357;32;19970;-51
2021/05/20 02:32:14;;;;;;;;;;;;;;;20.19;39.12;100281.37;4401765;32;19974;-54
2021/05/20 02:34:39;;;;;;;;;;;;;;;20.21;39.11;100281.37;4416135;32;19950;-54
2021/05/20 02:37:05;;;;;;;;;;;;;;;20.21;39.31;100286.66;4415233;32;19950;-54
2021/05/20 02:39:31;;;;;;;;;;;;;;;20.21;38.96;100292.84;4399876;32;19958;-53
2021/05/20 02:41:57;;;;;;;;;;;;;;;20.18;39.27;100287.50;4401599;32;19994;-49
2021/05/20 02:44:24;;;;;;;;;;;;;;;20.28;38.98;100288.50;4415789;32;19958;-49
2021/05/20 02:46:50;;;;;;;;;;;;;;;20.22;38.94;100289.31;4415702;32;19998;-53
2021/05/20 02:49:16;;;;;;;;;;;;;;;20.22;39.69;100289.31;4401141;32;20002;-51
2021/05/20 02:51:41;;;;;;;;;;;;;;;20.25;39.14;100295.50;4401909;32;20012;-54
2021/05/20 02:54:07;;;;;;;;;;;;;;;20.26;39.13;100294.66;4413243;32;19951;-52
2021/05/20 02:56:33;;;;;;;;;;;;;;;20.30;38.56;100302.63;4407374;32;19970;-52
2021/05/20 02:58:59;;;;;;;;;;;;;;;20.28;39.03;100298.19;4410349;32;19946;-54
2021/05/20 03:01:25;;;;;;;;;;;;;;;20.29;38.89;100299.97;4415827;32;19954;-52
2021/05/20 03:03:51;;;;;;;;;;;;;;;20.27;38.86;100294.69;4408611;32;19969;-53
2021/05/20 03:06:17;;;;;;;;;;;;;;;20.30;39.23;100299.09;4403070;32;20372;-52
2021/05/20 03:08:43;;;;;;;;;;;;;;;20.24;39.52;100294.63;4409935;32;19949;-52
2021/05/20 03:11:09;;;;;;;;;;;;;;;20.28;38.96;100299.09;4417624;32;20346;-54
2021/05/20 03:13:34;;;;;;;;;;;;;;;20.17;39.51;100293.66;4411261;32;19962;-54
2021/05/20 03:16:00;;;;;;;;;;;;;;;20.25;38.99;100292.88;4402625;32;19938;-50
2021/05/20 03:18:26;;;;;;;;;;;;;;;20.26;39.25;100299.94;4408187;32;20335;-52
2021/05/20 03:20:52;;;;;;;;;;;;;;;20.21;39.43;100302.53;4417976;32;19959;-51
2021/05/20 03:23:18;;;;;;;;;;;;;;;20.20;39.18;100301.66;4412980;32;20022;-52
2021/05/20 03:25:44;;;;;;;;;;;;;;;20.27;39.08;100307.00;4402370;32;19951;-50
2021/05/20 03:28:10;;;;;;;;;;;;;;;20.19;39.21;100309.56;4413541;32;19970;-51
2021/05/20 03:30:36;;;;;;;;;;;;;;;20.19;39.03;100310.44;4418087;32;20339;-51
2021/05/20 03:33:02;;;;;;;;;;;;;;;20.28;39.09;100311.41;4416555;32;19985;-49
2021/05/20 03:35:27;;;;;;;;;;;;;;;20.27;38.94;100305.25;4401922;32;20431;-53
2021/05/20 03:37:53;;;;;;;;;;;;;;;20.18;38.90;100303.38;4402810;32;20294;-53
2021/05/20 03:40:20;;;;;;;;;;;;;;;20.27;39.33;100299.06;4418700;32;19987;-54
2021/05/20 03:42:46;;;;;;;;;;;;;;;20.18;39.35;100303.38;4418111;32;19950;-53
2021/05/20 03:45:11;;;;;;;;;;;;;;;20.20;39.15;100301.66;4403154;32;20060;-55
2021/05/20 03:47:39;;;;;;;;;;;;;;;20.22;39.31;100310.47;4403398;32;20038;-54
2021/05/20 03:50:04;;;;;;;;;;;;;;;20.25;39.02;100308.75;4414776;32;20595;-51
2021/05/20 03:52:30;;;;;;;;;;;;;;;20.27;39.56;100313.19;4418942;32;19950;-50
2021/05/20 03:54:56;;;;;;;;;;;;;;;20.24;39.19;100317.53;4405298;32;20299;-51
2021/05/20 03:57:22;;;;;;;;;;;;;;;20.27;39.15;100317.56;4402868;32;20001;-51
2021/05/20 03:59:48;;;;;;;;;;;;;;;20.31;38.88;100314.09;4408376;32;19955;-52
2021/05/20 04:02:14;;;;;;;;;;;;;;;20.21;39.45;100327.22;4402706;32;19954;-48
2021/05/20 04:04:40;;;;;;;;;;;;;;;20.20;39.31;100322.81;4411407;32;19950;-53
2021/05/20 04:07:06;;;;;;;;;;;;;;;20.21;38.85;100324.56;4417306;32;19998;-54
2021/05/20 04:09:32;;;;;;;;;;;;;;;20.17;39.10;100333.31;4408998;32;19964;-54
2021/05/20 04:11:57;;;;;;;;;;;;;;;20.19;39.31;100336.00;4403670;32;20288;-51
2021/05/20 04:14:23;;;;;;;;;;;;;;;20.25;39.02;100333.44;4408667;32;19984;-54
2021/05/20 04:16:49;;;;;;;;;;;;;;;20.23;39.01;100335.16;4417732;32;20329;-52
2021/05/20 04:19:16;;;;;;;;;;;;;;;20.24;39.17;100328.13;4413180;32;19977;-53
2021/05/20 04:21:42;;;;;;;;;;;;;;;20.17;39.47;100333.31;4403452;32;19994;-51
2021/05/20 04:24:07;;;;;;;;;;;;;;;20.10;39.47;100334.12;4404756;32;19954;-51
2021/05/20 04:26:33;;;;;;;;;;;;;;;20.13;39.72;100334.16;4417870;32;19954;-47
2021/05/20 04:28:59;;;;;;;;;;;;;;;20.16;39.42;100342.13;4415572;32;20311;-52
2021/05/20 04:31:25;;;;;;;;;;;;;;;20.10;39.56;100342.06;4410109;32;19953;-53
2021/05/20 04:33:51;;;;;;;;;;;;;;;20.11;39.20;100348.22;4417612;32;19954;-52
2021/05/20 04:36:17;;;;;;;;;;;;;;;20.14;39.22;100351.78;4417320;32;20004;-54
2021/05/20 04:38:43;;;;;;;;;;;;;;;20.07;39.74;100356.13;4416699;32;19954;-53
2021/05/20 04:41:09;;;;;;;;;;;;;;;20.12;39.44;100357.91;4411214;32;20039;-49
2021/05/20 04:43:35;;;;;;;;;;;;;;;20.11;39.58;100354.41;4417700;32;19962;-50
2021/05/20 04:46:00;;;;;;;;;;;;;;;20.08;39.70;100364.94;4417988;32;20616;-50
2021/05/20 04:48:26;;;;;;;;;;;;;;;20.05;40.17;100364.88;4414665;32;19969;-53
2021/05/20 04:50:52;;;;;;;;;;;;;;;20.08;39.93;100364.94;4416727;32;20007;-51
2021/05/20 04:53:18;;;;;;;;;;;;;;;20.09;39.63;100364.06;4417234;32;19997;-53
2021/05/20 04:55:44;;;;;;;;;;;;;;;20.09;39.52;100372.00;4416144;32;19975;-55
2021/05/20 04:58:10;;;;;;;;;;;;;;;20.08;39.59;100367.59;4416942;32;20364;-50
2021/05/20 05:00:36;;;;;;;;;;;;;;;20.09;39.67;100366.72;4418291;32;19953;-53
2021/05/20 05:03:02;;;;;;;;;;;;;;;20.10;39.46;100373.78;4416537;32;19989;-51
2021/05/20 05:05:28;;;;;;;;;;;;;;;20.07;39.63;100385.19;4416953;32;20011;-51
2021/05/20 05:07:54;;;;;;;;;;;;;;;20.11;39.74;100380.84;4417185;32;19942;-51
2021/05/20 05:10:20;;;;;;;;;;;;;;;20.10;39.95;100381.72;4414947;32;19946;-52
2021/05/20 05:12:46;;;;;;;;;;;;;;;20.06;39.63;100387.81;4416470;32;19966;-55
2021/05/20 05:15:12;;;;;;;;;;;;;;;20.10;40.06;100400.22;4418275;32;19985;-53
2021/05/20 05:17:38;;;;;;;;;;;;;;;20.18;39.54;100398.53;4417396;32;19954;-53
2021/05/20 05:20:04;;;;;;;;;;;;;;;20.16;39.42;100410.00;4413273;32;19950;-49
2021/05/20 05:22:30;;;;;;;;;;;;;;;20.07;39.74;100416.03;4403271;32;20398;-49
2021/05/20 05:24:56;;;;;;;;;;;;;;;20.15;39.61;100414.38;4403451;32;20000;-51
2021/05/20 05:27:23;;;;;;;;;;;;;;;20.19;39.62;100413.56;4417773;32;20745;-52
2021/05/20 05:29:49;;;;;;;;;;;;;;;20.22;39.45;100421.53;4416839;32;19974;-51
2021/05/20 05:32:15;;;;;;;;;;;;;;;20.16;39.57;100421.44;4407771;32;20000;-53
2021/05/20 05:34:40;;;;;;;;;;;;;;;20.09;39.80;100424.88;4417196;32;20360;-53
2021/05/20 05:37:06;;;;;;;;;;;;;;;20.08;39.94;100425.75;4417471;32;19953;-50
2021/05/20 05:39:32;;;;;;;;;;;;;;;20.09;39.72;100424.88;4417245;32;19992;-56
2021/05/20 05:41:58;;;;;;;;;;;;;;;20.14;39.63;100428.47;4405078;32;20265;-53
2021/05/20 05:44:24;;;;;;;;;;;;;;;20.18;39.58;100432.91;4400775;32;19996;-51
2021/05/20 05:46:50;;;;;;;;;;;;;;;20.18;39.49;100440.84;4409117;32;19991;-55
2021/05/20 05:49:19;;;;;;;;;;;;;;;20.24;39.50;100439.19;4413796;32;19964;-55
2021/05/20 05:51:49;;;;;;;;;;;;;;;20.22;39.41;100437.41;4416134;32;19950;-51
2021/05/20 05:54:15;;;;;;;;;;;;;;;20.18;39.61;100434.69;4414663;32;19958;-51
2021/05/20 05:56:41;;;;;;;;;;;;;;;20.18;39.56;100440.84;4415526;32;19980;-53
2021/05/20 05:59:07;;;;;;;;;;;;;;;20.22;39.57;100440.03;4415308;32;19995;-53
2021/05/20 06:01:33;;;;;;;;;;;;;;;20.25;39.40;100435.66;4413924;32;19987;-54
2021/05/20 06:03:59;;;;;;;;;;;;;;;20.23;39.49;100430.34;4413625;32;20394;-53
2021/05/20 06:06:25;;;;;;;;;;;;;;;20.20;39.71;100431.22;4411894;32;19961;-54
2021/05/20 06:08:51;;;;;;;;;;;;;;;20.20;39.76;100439.16;4414959;32;19965;-56
2021/05/20 06:11:17;;;;;;;;;;;;;;;20.21;39.77;100442.66;4409609;32;19950;-54
2021/05/20 06:13:43;;;;;;;;;;;;;;;20.26;39.43;100448.00;4399475;32;19955;-53
2021/05/20 06:16:09;;;;;;;;;;;;;;;20.19;39.73;100437.37;4404700;32;19950;-53
2021/05/20 06:18:35;;;;;;;;;;;;;;;20.23;39.67;100443.56;4415520;32;20360;-54
2021/05/20 06:21:00;;;;;;;;;;;;;;;20.25;39.55;100447.16;4412156;32;19951;-55
2021/05/20 06:23:26;;;;;;;;;;;;;;;20.24;39.53;100444.47;4413027;32;19958;-54
2021/05/20 06:25:53;;;;;;;;;;;;;;;20.25;39.64;100452.44;4409131;32;19998;-54
2021/05/20 06:28:19;;;;;;;;;;;;;;;20.27;39.56;100449.78;4413394;32;19941;-56
2021/05/20 06:30:45;;;;;;;;;;;;;;;20.31;39.50;100451.59;4413691;32;19958;-55
2021/05/20 06:33:11;;;;;;;;;;;;;;;20.30;39.62;100452.47;4410701;32;19988;-52
2021/05/20 06:35:37;;;;;;;;;;;;;;;20.28;39.66;100452.47;4415431;32;19950;-54
2021/05/20 06:38:02;;;;;;;;;;;;;;;20.30;39.68;100456.00;4414409;32;19985;-53
2021/05/20 06:40:29;;;;;;;;;;;;;;;20.33;39.88;100449.88;4413549;32;19954;-54
2021/05/20 06:42:54;;;;;;;;;;;;;;;20.29;39.73;100446.31;4401309;32;19980;-54
2021/05/20 06:45:20;;;;;;;;;;;;;;;20.25;39.85;100447.16;4400357;32;19958;-50
2021/05/20 06:47:47;;;;;;;;;;;;;;;20.27;39.86;100449.78;4411234;32;19950;-52
2021/05/20 06:50:13;;;;;;;;;;;;;;;20.28;39.92;100444.53;4414825;32;19953;-54
2021/05/20 06:52:39;;;;;;;;;;;;;;;20.29;40.01;100453.34;4415199;32;19950;-49
2021/05/20 06:55:05;;;;;;;;;;;;;;;20.29;39.98;100446.31;4415153;32;20007;-49
2021/05/20 06:59:55;;;;;;;;;;;;;;;20.28;39.95;100456.84;4407661;32;19966;-47
2021/05/20 07:00:16;;;;;;;;;;;;;;;20.24;40.23;100450.63;4399808;32;19998;-52
2021/05/20 07:02:42;;;;;;;;;;;;;;;20.25;40.28;100454.16;4409641;32;20041;-51
2021/05/20 07:05:08;;;;;;;;;;;;;;;20.21;40.34;100456.78;4410850;32;20641;-53
2021/05/20 07:07:34;;;;;;;;;;;;;;;20.24;40.27;100455.91;4414212;32;19977;-54
2021/05/20 07:10:00;;;;;;;;;;;;;;;20.22;40.31;100447.97;4413239;32;20002;-52
2021/05/20 07:12:26;;;;;;;;;;;;;;;20.25;40.23;100456.81;4406018;32;20247;-53
2021/05/20 07:14:52;;;;;;;;;;;;;;;20.26;40.17;100458.59;4398159;32;19950;-53
2021/05/20 07:17:18;;;;;;;;;;;;;;;20.28;40.20;100472.72;4403610;32;19955;-53
2021/05/20 07:19:43;;;;;;;;;;;;;;;20.24;40.44;100466.50;4413480;32;19962;-53
2021/05/20 07:22:09;;;;;;;;;;;;;;;20.24;40.42;100462.97;4411122;32;19946;-53
2021/05/20 07:24:35;;;;;;;;;;;;;;;20.20;40.51;100460.28;4399255;32;19955;-52
2021/05/20 07:27:01;;;;;;;;;;;;;;;20.19;40.52;100468.19;4400859;32;19950;-54
2021/05/20 07:29:27;;;;;;;;;;;;;;;20.24;40.46;100470.91;4414349;32;20096;-55
2021/05/20 07:31:53;;;;;;;;;;;;;;;20.25;40.50;100475.31;4415185;32;19958;-55
2021/05/20 07:34:19;;;;;;;;;;;;;;;20.26;40.44;100471.81;4398189;32;20318;-53
2021/05/20 07:36:45;;;;;;;;;;;;;;;20.28;40.37;100473.63;4415350;32;19954;-54
2021/05/20 07:39:11;;;;;;;;;;;;;;;20.28;40.46;100472.72;4413734;32;19958;-53
2021/05/20 07:41:37;;;;;;;;;;;;;;;20.29;40.37;100471.84;4413909;32;19946;-52
2021/05/20 07:44:03;;;;;;;;;;;;;;;20.30;40.36;100471.88;4401465;32;19958;-52
2021/05/20 07:46:29;;;;;;;;;;;;;;;20.31;40.36;100462.19;4397885;32;20005;-52
2021/05/20 07:48:55;;;;;;;;;;;;;;;20.29;40.45;100469.22;4411394;32;19950;-52
2021/05/20 07:51:21;;;;;;;;;;;;;;;20.31;40.44;100472.75;4416293;32;19950;-54
2021/05/20 07:53:47;;;;;;;;;;;;;;;20.30;40.49;100476.28;4417617;32;19953;-54
2021/05/20 07:56:13;;;;;;;;;;;;;;;20.33;40.41;100476.34;4416212;32;19954;-53
2021/05/20 07:58:39;;;;;;;;;;;;;;;20.40;40.22;100482.59;4416827;32;19984;-51
2021/05/20 08:01:05;;;;;;;;;;;;;;;20.52;39.96;100481.88;4416231;32;19976;-52
2021/05/20 08:03:37;;;;;;;;;;;;;;;20.45;40.06;100479.16;4409394;32;19963;-52
2021/05/20 08:06:13;;;;;;;;;;;;;;;20.41;40.20;100479.94;4413890;32;19973;-54
2021/05/20 08:11:07;;;;;;;;;;;;;;;20.37;40.32;100486.09;4417182;32;19958;-54
2021/05/20 08:13:33;;;;;;;;;;;;;;;20.37;40.40;100483.44;4416464;32;20345;-54
2021/05/20 08:15:59;;;;;;;;;;;;;;;20.37;40.43;100478.16;4417627;32;19946;-52
2021/05/20 08:18:24;;;;;;;;;;;;;;;20.40;40.51;100483.47;4415753;32;19964;-54
2021/05/20 08:20:50;;;;;;;;;;;;;;;20.35;40.40;100480.75;4414842;32;20282;-52
2021/05/20 08:23:16;;;;;;;;;;;;;;;20.41;40.45;100487.87;4411163;32;19947;-54
2021/05/20 08:25:42;;;;;;;;;;;;;;;20.35;40.58;100479.88;4406614;32;19994;-55
2021/05/20 08:28:08;;;;;;;;;;;;;;;20.33;40.61;100487.78;4405274;32;19972;-52
2021/05/20 08:30:34;;;;;;;;;;;;;;;20.34;40.72;100486.91;4418392;32;19974;-51
2021/05/20 08:33:00;;;;;;;;;;;;;;;20.39;40.56;100489.62;4415448;32;19938;-53
2021/05/20 08:35:26;;;;;;;;;;;;;;;20.48;40.37;100487.13;4410112;32;19954;-54
2021/05/20 08:37:52;;;;;;;;;;;;;;;20.42;40.52;100480.87;4418195;32;20001;-54
2021/05/20 08:40:18;;;;;;;;;;;;;;;20.38;40.59;100485.22;4415905;32;19950;-53
2021/05/20 08:42:44;;;;;;;;;;;;;;;20.35;40.74;100480.75;4418688;32;20025;-52
2021/05/20 08:45:10;;;;;;;;;;;;;;;20.43;40.51;100486.16;4417245;32;19954;-55
2021/05/20 08:47:36;;;;;;;;;;;;;;;20.49;40.32;100478.31;4417073;32;19958;-54
2021/05/20 08:50:01;;;;;;;;;;;;;;;20.48;40.45;100484.47;4417918;32;20001;-55
2021/05/20 08:52:27;;;;;;;;;;;;;;;20.64;40.23;100487.31;4416317;32;19938;-54
2021/05/20 08:54:53;;;;;;;;;;;;;;;20.74;39.97;100489.22;4416350;32;19958;-55
2021/05/20 08:57:19;;;;;;;;;;;;;;;20.64;40.15;100484.66;4416025;32;19968;-53
2021/05/20 08:59:46;;;;;;;;;;;;;;;20.61;40.15;100471.41;4416177;32;19954;-52
2021/05/20 09:02:12;;;;;;;;;;;;;;;20.69;40.07;100475.06;4415428;32;19950;-52
2021/05/20 09:04:38;;;;;;;;;;;;;;;20.83;39.76;100475.22;4416326;32;19959;-52
2021/05/20 09:07:09;;;;;;;;;;;;;;;20.81;39.80;100473.44;4417383;32;19962;-53
2021/05/20 09:09:38;;;;;;;;;;;;;;;20.84;39.75;100477.00;4416382;32;19950;-53
2021/05/20 09:12:04;;;;;;;;;;;;;;;20.86;39.70;100471.75;4416627;32;19973;-49
2021/05/20 09:14:30;;;;;;;;;;;;;;;20.87;39.66;100477.06;4416973;32;19965;-53
2021/05/20 09:16:56;;;;;;;;;;;;;;;20.92;39.54;100479.75;4416393;32;19942;-52
2021/05/20 09:19:22;;;;;;;;;;;;;;;20.82;39.83;100481.41;4415538;32;20314;-53
2021/05/20 09:21:48;;;;;;;;;;;;;;;20.84;39.67;100489.38;4417152;32;19973;-54
2021/05/20 09:24:14;;;;;;;;;;;;;;;20.85;39.82;100481.44;4415989;32;19950;-52
2021/05/20 09:26:40;;;;;;;;;;;;;;;20.90;39.59;100484.13;4415790;32;19938;-53
2021/05/20 09:29:06;;;;;;;;;;;;;;;20.93;39.63;100484.19;4415450;32;19950;-53
2021/05/20 09:31:32;;;;;;;;;;;;;;;20.91;39.73;100484.16;4418565;32;20072;-50
2021/05/20 09:33:57;;;;;;;;;;;;;;;20.96;39.54;100480.66;4416175;32;19998;-54
2021/05/20 09:36:23;;;;;;;;;;;;;;;20.82;39.96;100476.09;4418034;32;20052;-53
2021/05/20 09:38:49;;;;;;;;;;;;;;;20.77;40.00;100478.66;4417155;32;19964;-52
2021/05/20 09:41:15;;;;;;;;;;;;;;;20.86;39.83;100472.62;4417500;32;19958;-51
2021/05/20 09:43:44;;;;;;;;;;;;;;;20.81;39.88;100473.44;4418342;32;20354;-52
2021/05/20 09:46:10;;;;;;;;;;;;;;;20.68;39.91;100468.00;4416381;32;19981;-53
2021/05/20 09:48:37;;;;;;;;;;;;;;;20.66;40.32;100469.69;4415689;32;19954;-59
2021/05/20 09:51:02;;;;;;;;;;;;;;;20.73;40.20;100460.97;4416114;32;20258;-58
2021/05/20 09:53:28;;;;;;;;;;;;;;;20.58;39.80;100460.78;4414839;32;20017;-59
2021/05/20 09:55:55;;;;;;;;;;;;;;;20.38;40.30;100448.19;4415238;32;19946;-55
2021/05/20 09:58:22;;;;;;;;;;;;;;;20.15;40.42;100456.69;4415531;32;19993;-55
2021/05/20 10:00:49;;;;;;;;;;;;;;;20.01;40.37;100450.31;4415516;32;20353;-59
2021/05/20 10:03:15;;;;;;;;;;;;;;;19.38;41.23;100451.91;4414979;32;20494;-59
2021/05/20 10:05:41;;;;;;;;;;;;;;;19.62;40.46;100454.94;4415522;32;19953;-58
2021/05/20 10:08:07;;;;;;;;;;;;;;;18.94;41.85;100450.19;4415436;32;20000;-61
2021/05/20 10:10:34;;;;;;;;;;;;;;;18.85;42.85;100446.50;4416271;32;20046;-59
2021/05/20 10:13:00;;;;;;;;;;;;;;;19.23;42.14;100451.66;4416011;32;19958;-58
2021/05/20 10:15:26;;;;;;;;;;;;;;;18.84;43.01;100447.34;4416082;32;19973;-59
2021/05/20 10:17:52;;;;;;;;;;;;;;;18.43;43.81;100445.62;4416405;32;20016;-58
2021/05/20 10:20:18;;;;;;;;;;;;;;;18.65;42.99;100441.69;4416067;32;19958;-59
2021/05/20 10:22:44;;;;;;;;;;;;;;;18.71;41.90;100436.56;4417215;32;19968;-57
2021/05/20 10:25:10;;;;;;;;;;;;;;;18.46;42.80;100443.06;4416359;32;19958;-56
2021/05/20 10:27:36;;;;;;;;;;;;;;;18.62;42.68;100431.09;4416044;32;19961;-58
2021/05/20 10:30:02;;;;;;;;;;;;;;;18.61;42.63;100422.28;4415617;32;20001;-58
2021/05/20 10:32:28;;;;;;;;;;;;;;;19.04;42.07;100409.06;4415671;32;20330;-59
2021/05/20 10:34:54;;;;;;;;;;;;;;;18.96;42.26;100418.56;4416126;32;19992;-57
2021/05/20 10:37:20;;;;;;;;;;;;;;;19.08;41.90;100410.00;4416497;32;19992;-57
2021/05/20 10:39:45;;;;;;;;;;;;;;;19.37;41.17;100413.16;4415544;32;20302;-57
2021/05/20 10:42:11;;;;;;;;;;;;;;;19.15;41.58;100411.00;4414304;32;19958;-53
2021/05/20 10:44:37;;;;;;;;;;;;;;;19.48;40.67;100412.47;4406722;32;19942;-57
2021/05/20 10:47:03;;;;;;;;;;;;;;;19.35;41.03;100408.72;4415974;32;20338;-58
2021/05/20 10:49:29;;;;;;;;;;;;;;;19.08;41.48;100408.28;4415611;32;20315;-58
2021/05/20 10:51:55;;;;;;;;;;;;;;;19.35;41.26;100406.06;4416557;32;19950;-57
2021/05/20 10:54:21;;;;;;;;;;;;;;;19.49;41.37;100401.03;4416175;32;19996;-59
2021/05/20 10:56:47;;;;;;;;;;;;;;;19.70;41.03;100394.31;4416664;32;20553;-59
2021/05/20 10:59:13;;;;;;;;;;;;;;;19.06;42.05;100394.13;4414740;32;19957;-58
2021/05/20 11:01:39;;;;;;;;;;;;;;;18.45;42.83;100392.03;4414393;32;19949;-58
2021/05/20 11:04:05;;;;;;;;;;;;;;;18.57;43.43;100401.06;4415792;32;19968;-58
2021/05/20 11:06:31;;;;;;;;;;;;;;;18.26;43.67;100402.22;4414626;32;20034;-59
2021/05/20 11:08:57;;;;;;;;;;;;;;;18.24;43.82;100393.41;4415378;32;20011;-59
2021/05/20 11:11:23;;;;;;;;;;;;;;;18.99;42.73;100394.88;4416075;32;20002;-59
2021/05/20 11:13:49;;;;;;;;;;;;;;;18.84;41.86;100395.47;4408406;32;20339;-60
2021/05/20 11:16:15;;;;;;;;;;;;;;;18.25;42.99;100395.19;4407290;32;19957;-59
2021/05/20 11:18:41;;;;;;;;;;;;;;;18.78;41.97;100385.69;4416611;32;19951;-59
2021/05/20 11:21:07;;;;;;;;;;;;;;;19.18;41.47;100384.66;4412020;32;20008;-59
2021/05/20 11:23:34;;;;;;;;;;;;;;;19.36;41.06;100382.34;4402771;32;19980;-59
2021/05/20 11:26:00;;;;;;;;;;;;;;;19.16;41.63;100381.09;4417681;32;19965;-59
2021/05/20 11:28:26;;;;;;;;;;;;;;;19.18;41.60;100384.66;4419200;32;19954;-59
2021/05/20 11:30:52;;;;;;;;;;;;;;;19.63;40.45;100388.94;4417941;32;20362;-60
2021/05/20 11:33:20;;;;;;;;;;;;;;;19.21;41.38;100379.44;4403722;32;19965;-59
2021/05/20 11:38:42;;;;;;;;;;;;;;;17.78;45.47;100377.44;4411548;32;19980;-60
2021/05/20 11:41:07;;;;;;;;;;;;;;;17.55;45.63;100384.75;4419163;32;19951;-60
2021/05/20 11:43:34;;;;;;;;;;;;;;;17.45;45.65;100377.50;4425761;32;20374;-59
2021/05/20 11:46:00;;;;;;;;;;;;;;;17.64;45.72;100373.56;4423871;32;19992;-59
2021/05/20 11:48:26;;;;;;;;;;;;;;;17.68;45.13;100367.53;4403941;32;19954;-58
2021/05/20 11:50:52;;;;;;;;;;;;;;;17.38;45.48;100377.34;4403313;32;20370;-60
2021/05/20 11:53:18;;;;;;;;;;;;;;;18.17;44.31;100370.38;4424290;32;19996;-60
2021/05/20 11:55:47;;;;;;;;;;;;;;;18.29;43.17;100359.22;4424835;32;19954;-60
2021/05/20 11:58:13;;;;;;;;;;;;;;;17.59;44.13;100354.12;4411253;32;20012;-59
2021/05/20 12:00:39;;;;;;;;;;;;;;;18.10;43.35;100363.22;4403417;32;19955;-59
2021/05/20 12:03:04;;;;;;;;;;;;;;;17.76;43.46;100351.91;4415582;32;19991;-59
2021/05/20 12:05:30;;;;;;;;;;;;;;;18.02;43.72;100364.75;4427679;32;19987;-59
2021/05/20 12:07:56;;;;;;;;;;;;;;;18.56;45.61;100367.66;4411909;32;19946;-58
2021/05/20 12:10:22;;;;;;;;;;;;;;;18.78;46.34;100359.28;4402528;32;21474;-59
2021/05/20 12:12:52;;;;;;;;;;;;;;;19.08;46.03;100352.84;4412775;32;20350;-60
2021/05/20 12:15:18;;;;;;;;;;;;;;;19.11;46.06;100346.69;4418775;32;20399;-59
2021/05/20 12:17:44;;;;;;;;;;;;;;;19.27;45.12;100347.84;4423729;32;19949;-59
2021/05/20 12:20:09;;;;;;;;;;;;;;;18.35;45.91;100342.66;4432677;32;19956;-59
2021/05/20 12:22:38;;;;;;;;;;;;;;;18.71;46.31;100333.69;4425770;32;20390;-59
2021/05/20 12:25:04;;;;;;;;;;;;;;;18.52;45.77;100332.41;4414866;32;19955;-52
2021/05/20 12:27:30;;;;;;;;;;;;;;;19.10;44.86;100326.44;4413058;32;19950;-54
2021/05/20 12:29:56;;;;;;;;;;;;;;;19.67;43.49;100329.09;4418243;32;19975;-53
2021/05/20 12:32:22;;;;;;;;;;;;;;;20.03;42.55;100326.97;4412908;32;20018;-52
2021/05/20 12:34:48;;;;;;;;;;;;;;;20.28;41.97;100324.63;4411217;32;19942;-52